<?xml version="1.0" encoding="UTF-8" standalone="no" ?>
<gpx xmlns="http://www.topografix.com/GPX/1/1" xmlns:xsi="http://www.w3.org/2001/XMLSchema-instance" xsi:schemaLocation="http://www.topografix.com/GPX/1/1 http://www.topografix.com/GPX/1/1/gpx.xsd" version="1.1" creator="VisuGPX - https://www.visugpx.com">
  <metadata>
    <name>Sentier du lutin</name>
    <desc><![CDATA[Randonnée pédestre ou VTT en forêt.]]></desc>
  </metadata>
  <trk>
    <name><![CDATA[Tracé 005]]></name>
    <trkseg>
      <trkpt lat="43.23976" lon="0.8992">
        <ele>353.42</ele>
        <time>2014-07-13T11:26:52Z</time>
      </trkpt>
      <trkpt lat="43.23976" lon="0.89925">
        <ele>353.9</ele>
        <time>2014-07-13T11:26:56Z</time>
      </trkpt>
      <trkpt lat="43.23976" lon="0.89937">
        <ele>354.38</ele>
        <time>2014-07-13T11:27:06Z</time>
      </trkpt>
      <trkpt lat="43.23975" lon="0.89944">
        <ele>355.34</ele>
        <time>2014-07-13T11:27:13Z</time>
      </trkpt>
      <trkpt lat="43.23976" lon="0.89948">
        <ele>355.34</ele>
        <time>2014-07-13T11:27:16Z</time>
      </trkpt>
      <trkpt lat="43.23975" lon="0.89966">
        <ele>357.75</ele>
        <time>2014-07-13T11:27:30Z</time>
      </trkpt>
      <trkpt lat="43.23972" lon="0.89981">
        <ele>358.23</ele>
        <time>2014-07-13T11:27:42Z</time>
      </trkpt>
      <trkpt lat="43.2397" lon="0.89988">
        <ele>358.71</ele>
        <time>2014-07-13T11:27:49Z</time>
      </trkpt>
      <trkpt lat="43.2397" lon="0.89991">
        <ele>359.19</ele>
        <time>2014-07-13T11:27:51Z</time>
      </trkpt>
      <trkpt lat="43.23969" lon="0.89996">
        <ele>359.67</ele>
        <time>2014-07-13T11:27:55Z</time>
      </trkpt>
      <trkpt lat="43.23966" lon="0.90007">
        <ele>360.15</ele>
        <time>2014-07-13T11:28:06Z</time>
      </trkpt>
      <trkpt lat="43.23965" lon="0.90009">
        <ele>360.15</ele>
        <time>2014-07-13T11:28:08Z</time>
      </trkpt>
      <trkpt lat="43.23964" lon="0.90012">
        <ele>359.67</ele>
        <time>2014-07-13T11:28:11Z</time>
      </trkpt>
      <trkpt lat="43.23961" lon="0.9002">
        <ele>360.15</ele>
        <time>2014-07-13T11:28:18Z</time>
      </trkpt>
      <trkpt lat="43.23961" lon="0.90024">
        <ele>360.15</ele>
        <time>2014-07-13T11:28:22Z</time>
      </trkpt>
      <trkpt lat="43.2396" lon="0.90029">
        <ele>359.67</ele>
        <time>2014-07-13T11:28:26Z</time>
      </trkpt>
      <trkpt lat="43.23958" lon="0.90034">
        <ele>360.63</ele>
        <time>2014-07-13T11:28:31Z</time>
      </trkpt>
      <trkpt lat="43.23957" lon="0.90038">
        <ele>360.63</ele>
        <time>2014-07-13T11:28:34Z</time>
      </trkpt>
      <trkpt lat="43.23955" lon="0.90046">
        <ele>361.11</ele>
        <time>2014-07-13T11:28:40Z</time>
      </trkpt>
      <trkpt lat="43.23955" lon="0.90056">
        <ele>361.11</ele>
        <time>2014-07-13T11:28:48Z</time>
      </trkpt>
      <trkpt lat="43.23954" lon="0.90066">
        <ele>361.11</ele>
        <time>2014-07-13T11:28:56Z</time>
      </trkpt>
      <trkpt lat="43.23951" lon="0.90083">
        <ele>361.11</ele>
        <time>2014-07-13T11:29:08Z</time>
      </trkpt>
      <trkpt lat="43.23951" lon="0.90089">
        <ele>360.63</ele>
        <time>2014-07-13T11:29:13Z</time>
      </trkpt>
      <trkpt lat="43.23949" lon="0.90097">
        <ele>360.63</ele>
        <time>2014-07-13T11:29:18Z</time>
      </trkpt>
      <trkpt lat="43.23947" lon="0.9011">
        <ele>360.15</ele>
        <time>2014-07-13T11:29:28Z</time>
      </trkpt>
      <trkpt lat="43.23947" lon="0.90112">
        <ele>360.15</ele>
        <time>2014-07-13T11:29:31Z</time>
      </trkpt>
      <trkpt lat="43.23945" lon="0.90117">
        <ele>360.63</ele>
        <time>2014-07-13T11:29:37Z</time>
      </trkpt>
      <trkpt lat="43.23943" lon="0.9012">
        <ele>360.63</ele>
        <time>2014-07-13T11:29:40Z</time>
      </trkpt>
      <trkpt lat="43.23941" lon="0.90122">
        <ele>360.63</ele>
        <time>2014-07-13T11:29:44Z</time>
      </trkpt>
      <trkpt lat="43.23932" lon="0.90113">
        <ele>361.59</ele>
        <time>2014-07-13T11:29:56Z</time>
      </trkpt>
      <trkpt lat="43.2393" lon="0.90109">
        <ele>361.59</ele>
        <time>2014-07-13T11:30:00Z</time>
      </trkpt>
      <trkpt lat="43.23928" lon="0.90105">
        <ele>362.07</ele>
        <time>2014-07-13T11:30:04Z</time>
      </trkpt>
      <trkpt lat="43.23925" lon="0.901">
        <ele>362.07</ele>
        <time>2014-07-13T11:30:08Z</time>
      </trkpt>
      <trkpt lat="43.23924" lon="0.90096">
        <ele>362.55</ele>
        <time>2014-07-13T11:30:13Z</time>
      </trkpt>
      <trkpt lat="43.23923" lon="0.90091">
        <ele>363.04</ele>
        <time>2014-07-13T11:30:17Z</time>
      </trkpt>
      <trkpt lat="43.23919" lon="0.90085">
        <ele>363.04</ele>
        <time>2014-07-13T11:30:23Z</time>
      </trkpt>
      <trkpt lat="43.23917" lon="0.90081">
        <ele>363.52</ele>
        <time>2014-07-13T11:30:27Z</time>
      </trkpt>
      <trkpt lat="43.23914" lon="0.90071">
        <ele>364</ele>
        <time>2014-07-13T11:30:35Z</time>
      </trkpt>
      <trkpt lat="43.23912" lon="0.90068">
        <ele>364.48</ele>
        <time>2014-07-13T11:30:39Z</time>
      </trkpt>
      <trkpt lat="43.2391" lon="0.90061">
        <ele>364.48</ele>
        <time>2014-07-13T11:30:48Z</time>
      </trkpt>
      <trkpt lat="43.23907" lon="0.90057">
        <ele>364.96</ele>
        <time>2014-07-13T11:30:51Z</time>
      </trkpt>
      <trkpt lat="43.23897" lon="0.90041">
        <ele>366.88</ele>
        <time>2014-07-13T11:31:03Z</time>
      </trkpt>
      <trkpt lat="43.23895" lon="0.90039">
        <ele>367.36</ele>
        <time>2014-07-13T11:31:05Z</time>
      </trkpt>
      <trkpt lat="43.23893" lon="0.90034">
        <ele>366.88</ele>
        <time>2014-07-13T11:31:09Z</time>
      </trkpt>
      <trkpt lat="43.23892" lon="0.9003">
        <ele>367.36</ele>
        <time>2014-07-13T11:31:12Z</time>
      </trkpt>
      <trkpt lat="43.23889" lon="0.90027">
        <ele>367.84</ele>
        <time>2014-07-13T11:31:16Z</time>
      </trkpt>
      <trkpt lat="43.23887" lon="0.90018">
        <ele>368.8</ele>
        <time>2014-07-13T11:31:24Z</time>
      </trkpt>
      <trkpt lat="43.23879" lon="0.90006">
        <ele>370.73</ele>
        <time>2014-07-13T11:31:37Z</time>
      </trkpt>
      <trkpt lat="43.23871" lon="0.89996">
        <ele>372.17</ele>
        <time>2014-07-13T11:31:49Z</time>
      </trkpt>
      <trkpt lat="43.23869" lon="0.89994">
        <ele>372.17</ele>
        <time>2014-07-13T11:31:51Z</time>
      </trkpt>
      <trkpt lat="43.23863" lon="0.89985">
        <ele>374.09</ele>
        <time>2014-07-13T11:32:03Z</time>
      </trkpt>
      <trkpt lat="43.23862" lon="0.8998">
        <ele>375.53</ele>
        <time>2014-07-13T11:32:07Z</time>
      </trkpt>
      <trkpt lat="43.23862" lon="0.89966">
        <ele>376.49</ele>
        <time>2014-07-13T11:32:21Z</time>
      </trkpt>
      <trkpt lat="43.23861" lon="0.89955">
        <ele>377.94</ele>
        <time>2014-07-13T11:32:39Z</time>
      </trkpt>
      <trkpt lat="43.23864" lon="0.89941">
        <ele>377.94</ele>
        <time>2014-07-13T11:32:55Z</time>
      </trkpt>
      <trkpt lat="43.23865" lon="0.89941">
        <ele>377.45</ele>
        <time>2014-07-13T11:41:14Z</time>
      </trkpt>
      <trkpt lat="43.23886" lon="0.8989">
        <ele>379.38</ele>
        <time>2014-07-13T11:41:30Z</time>
      </trkpt>
      <trkpt lat="43.23886" lon="0.89871">
        <ele>378.9</ele>
        <time>2014-07-13T11:41:48Z</time>
      </trkpt>
      <trkpt lat="43.23887" lon="0.89862">
        <ele>380.34</ele>
        <time>2014-07-13T11:42:02Z</time>
      </trkpt>
      <trkpt lat="43.23886" lon="0.89858">
        <ele>380.82</ele>
        <time>2014-07-13T11:42:16Z</time>
      </trkpt>
      <trkpt lat="43.23881" lon="0.89851">
        <ele>381.3</ele>
        <time>2014-07-13T11:42:29Z</time>
      </trkpt>
      <trkpt lat="43.23852" lon="0.8979">
        <ele>382.26</ele>
        <time>2014-07-13T11:42:43Z</time>
      </trkpt>
      <trkpt lat="43.23851" lon="0.8979">
        <ele>389.95</ele>
        <time>2014-07-13T11:45:58Z</time>
      </trkpt>
      <trkpt lat="43.23845" lon="0.89772">
        <ele>391.87</ele>
        <time>2014-07-13T11:46:13Z</time>
      </trkpt>
      <trkpt lat="43.23839" lon="0.89755">
        <ele>393.32</ele>
        <time>2014-07-13T11:46:28Z</time>
      </trkpt>
      <trkpt lat="43.23833" lon="0.89749">
        <ele>393.32</ele>
        <time>2014-07-13T11:46:41Z</time>
      </trkpt>
      <trkpt lat="43.23829" lon="0.89742">
        <ele>394.28</ele>
        <time>2014-07-13T11:46:53Z</time>
      </trkpt>
      <trkpt lat="43.23821" lon="0.89726">
        <ele>394.28</ele>
        <time>2014-07-13T11:47:09Z</time>
      </trkpt>
      <trkpt lat="43.23811" lon="0.8971">
        <ele>394.76</ele>
        <time>2014-07-13T11:47:25Z</time>
      </trkpt>
      <trkpt lat="43.23803" lon="0.89697">
        <ele>394.76</ele>
        <time>2014-07-13T11:47:38Z</time>
      </trkpt>
      <trkpt lat="43.23795" lon="0.89683">
        <ele>395.72</ele>
        <time>2014-07-13T11:47:52Z</time>
      </trkpt>
      <trkpt lat="43.23788" lon="0.89675">
        <ele>395.72</ele>
        <time>2014-07-13T11:48:08Z</time>
      </trkpt>
      <trkpt lat="43.2378" lon="0.89672">
        <ele>395.24</ele>
        <time>2014-07-13T11:48:18Z</time>
      </trkpt>
      <trkpt lat="43.23771" lon="0.89672">
        <ele>394.76</ele>
        <time>2014-07-13T11:48:34Z</time>
      </trkpt>
      <trkpt lat="43.23763" lon="0.89677">
        <ele>393.8</ele>
        <time>2014-07-13T11:48:48Z</time>
      </trkpt>
      <trkpt lat="43.23753" lon="0.89682">
        <ele>392.84</ele>
        <time>2014-07-13T11:49:00Z</time>
      </trkpt>
      <trkpt lat="43.23741" lon="0.89687">
        <ele>391.87</ele>
        <time>2014-07-13T11:49:14Z</time>
      </trkpt>
      <trkpt lat="43.23709" lon="0.897">
        <ele>390.43</ele>
        <time>2014-07-13T11:49:27Z</time>
      </trkpt>
      <trkpt lat="43.23709" lon="0.89701">
        <ele>388.51</ele>
        <time>2014-07-13T11:50:40Z</time>
      </trkpt>
      <trkpt lat="43.23696" lon="0.89703">
        <ele>387.55</ele>
        <time>2014-07-13T11:50:56Z</time>
      </trkpt>
      <trkpt lat="43.23689" lon="0.89698">
        <ele>386.59</ele>
        <time>2014-07-13T11:51:12Z</time>
      </trkpt>
      <trkpt lat="43.23687" lon="0.89694">
        <ele>387.07</ele>
        <time>2014-07-13T11:51:27Z</time>
      </trkpt>
      <trkpt lat="43.23681" lon="0.89689">
        <ele>386.11</ele>
        <time>2014-07-13T11:51:34Z</time>
      </trkpt>
      <trkpt lat="43.2367" lon="0.89675">
        <ele>385.63</ele>
        <time>2014-07-13T11:51:49Z</time>
      </trkpt>
      <trkpt lat="43.23653" lon="0.89658">
        <ele>385.15</ele>
        <time>2014-07-13T11:52:10Z</time>
      </trkpt>
      <trkpt lat="43.23648" lon="0.89653">
        <ele>384.66</ele>
        <time>2014-07-13T11:52:22Z</time>
      </trkpt>
      <trkpt lat="43.23637" lon="0.89641">
        <ele>385.63</ele>
        <time>2014-07-13T11:52:37Z</time>
      </trkpt>
      <trkpt lat="43.23624" lon="0.89623">
        <ele>386.11</ele>
        <time>2014-07-13T11:52:55Z</time>
      </trkpt>
      <trkpt lat="43.23615" lon="0.89612">
        <ele>386.59</ele>
        <time>2014-07-13T11:53:10Z</time>
      </trkpt>
      <trkpt lat="43.23578" lon="0.8957">
        <ele>387.07</ele>
        <time>2014-07-13T11:53:29Z</time>
      </trkpt>
      <trkpt lat="43.23578" lon="0.8957">
        <ele>387.55</ele>
        <time>2014-07-13T11:59:13Z</time>
      </trkpt>
      <trkpt lat="43.23563" lon="0.89551">
        <ele>387.07</ele>
        <time>2014-07-13T11:59:28Z</time>
      </trkpt>
      <trkpt lat="43.23553" lon="0.89539">
        <ele>387.55</ele>
        <time>2014-07-13T11:59:42Z</time>
      </trkpt>
      <trkpt lat="43.2354" lon="0.89522">
        <ele>388.51</ele>
        <time>2014-07-13T11:59:58Z</time>
      </trkpt>
      <trkpt lat="43.2353" lon="0.89509">
        <ele>388.99</ele>
        <time>2014-07-13T12:00:13Z</time>
      </trkpt>
      <trkpt lat="43.23527" lon="0.89487">
        <ele>388.99</ele>
        <time>2014-07-13T12:00:28Z</time>
      </trkpt>
      <trkpt lat="43.23528" lon="0.89467">
        <ele>391.39</ele>
        <time>2014-07-13T12:00:43Z</time>
      </trkpt>
      <trkpt lat="43.23527" lon="0.89447">
        <ele>392.84</ele>
        <time>2014-07-13T12:00:59Z</time>
      </trkpt>
      <trkpt lat="43.23519" lon="0.89429">
        <ele>393.32</ele>
        <time>2014-07-13T12:01:15Z</time>
      </trkpt>
      <trkpt lat="43.23511" lon="0.89413">
        <ele>392.36</ele>
        <time>2014-07-13T12:01:29Z</time>
      </trkpt>
      <trkpt lat="43.23504" lon="0.89403">
        <ele>391.39</ele>
        <time>2014-07-13T12:01:42Z</time>
      </trkpt>
      <trkpt lat="43.23494" lon="0.89388">
        <ele>390.43</ele>
        <time>2014-07-13T12:01:57Z</time>
      </trkpt>
      <trkpt lat="43.23484" lon="0.89377">
        <ele>388.99</ele>
        <time>2014-07-13T12:02:12Z</time>
      </trkpt>
      <trkpt lat="43.23477" lon="0.89368">
        <ele>389.47</ele>
        <time>2014-07-13T12:02:24Z</time>
      </trkpt>
      <trkpt lat="43.23468" lon="0.89353">
        <ele>390.91</ele>
        <time>2014-07-13T12:02:38Z</time>
      </trkpt>
      <trkpt lat="43.23457" lon="0.89345">
        <ele>392.36</ele>
        <time>2014-07-13T12:02:53Z</time>
      </trkpt>
      <trkpt lat="43.23438" lon="0.89333">
        <ele>391.39</ele>
        <time>2014-07-13T12:03:12Z</time>
      </trkpt>
      <trkpt lat="43.23415" lon="0.89308">
        <ele>392.36</ele>
        <time>2014-07-13T12:03:29Z</time>
      </trkpt>
      <trkpt lat="43.23415" lon="0.89308">
        <ele>395.24</ele>
        <time>2014-07-13T12:07:38Z</time>
      </trkpt>
      <trkpt lat="43.23398" lon="0.89296">
        <ele>397.64</ele>
        <time>2014-07-13T12:07:54Z</time>
      </trkpt>
      <trkpt lat="43.23392" lon="0.89279">
        <ele>401.01</ele>
        <time>2014-07-13T12:08:12Z</time>
      </trkpt>
      <trkpt lat="43.23389" lon="0.89269">
        <ele>401.49</ele>
        <time>2014-07-13T12:08:36Z</time>
      </trkpt>
      <trkpt lat="43.23383" lon="0.89249">
        <ele>404.85</ele>
        <time>2014-07-13T12:08:52Z</time>
      </trkpt>
      <trkpt lat="43.23379" lon="0.89227">
        <ele>407.26</ele>
        <time>2014-07-13T12:09:09Z</time>
      </trkpt>
      <trkpt lat="43.23386" lon="0.89216">
        <ele>408.7</ele>
        <time>2014-07-13T12:09:26Z</time>
      </trkpt>
      <trkpt lat="43.23395" lon="0.89215">
        <ele>408.7</ele>
        <time>2014-07-13T12:09:43Z</time>
      </trkpt>
      <trkpt lat="43.23397" lon="0.89207">
        <ele>408.7</ele>
        <time>2014-07-13T12:10:01Z</time>
      </trkpt>
      <trkpt lat="43.23391" lon="0.89191">
        <ele>410.62</ele>
        <time>2014-07-13T12:10:18Z</time>
      </trkpt>
      <trkpt lat="43.23368" lon="0.89177">
        <ele>412.06</ele>
        <time>2014-07-13T12:10:37Z</time>
      </trkpt>
      <trkpt lat="43.23368" lon="0.89177">
        <ele>413.02</ele>
        <time>2014-07-13T12:11:51Z</time>
      </trkpt>
      <trkpt lat="43.23356" lon="0.89173">
        <ele>414.47</ele>
        <time>2014-07-13T12:12:06Z</time>
      </trkpt>
      <trkpt lat="43.23337" lon="0.89167">
        <ele>414.95</ele>
        <time>2014-07-13T12:12:23Z</time>
      </trkpt>
      <trkpt lat="43.23324" lon="0.89169">
        <ele>415.43</ele>
        <time>2014-07-13T12:12:43Z</time>
      </trkpt>
      <trkpt lat="43.23315" lon="0.8917">
        <ele>415.91</ele>
        <time>2014-07-13T12:13:10Z</time>
      </trkpt>
      <trkpt lat="43.23311" lon="0.89172">
        <ele>416.39</ele>
        <time>2014-07-13T12:13:29Z</time>
      </trkpt>
      <trkpt lat="43.2329" lon="0.8915">
        <ele>417.35</ele>
        <time>2014-07-13T12:13:45Z</time>
      </trkpt>
      <trkpt lat="43.2329" lon="0.8915">
        <ele>419.75</ele>
        <time>2014-07-13T12:17:46Z</time>
      </trkpt>
      <trkpt lat="43.23283" lon="0.89141">
        <ele>420.23</ele>
        <time>2014-07-13T12:18:05Z</time>
      </trkpt>
      <trkpt lat="43.23281" lon="0.89141">
        <ele>420.23</ele>
        <time>2014-07-13T12:18:29Z</time>
      </trkpt>
      <trkpt lat="43.23272" lon="0.89131">
        <ele>422.16</ele>
        <time>2014-07-13T12:18:43Z</time>
      </trkpt>
      <trkpt lat="43.23264" lon="0.8913">
        <ele>423.12</ele>
        <time>2014-07-13T12:18:52Z</time>
      </trkpt>
      <trkpt lat="43.23248" lon="0.89122">
        <ele>424.56</ele>
        <time>2014-07-13T12:19:07Z</time>
      </trkpt>
      <trkpt lat="43.23236" lon="0.89115">
        <ele>426.48</ele>
        <time>2014-07-13T12:19:20Z</time>
      </trkpt>
      <trkpt lat="43.23225" lon="0.89109">
        <ele>427.44</ele>
        <time>2014-07-13T12:19:33Z</time>
      </trkpt>
      <trkpt lat="43.23213" lon="0.89105">
        <ele>427.92</ele>
        <time>2014-07-13T12:19:46Z</time>
      </trkpt>
      <trkpt lat="43.232" lon="0.891">
        <ele>428.89</ele>
        <time>2014-07-13T12:19:59Z</time>
      </trkpt>
      <trkpt lat="43.23191" lon="0.89094">
        <ele>428.89</ele>
        <time>2014-07-13T12:20:10Z</time>
      </trkpt>
      <trkpt lat="43.23174" lon="0.89081">
        <ele>428.89</ele>
        <time>2014-07-13T12:20:27Z</time>
      </trkpt>
      <trkpt lat="43.23163" lon="0.89073">
        <ele>428.89</ele>
        <time>2014-07-13T12:20:40Z</time>
      </trkpt>
      <trkpt lat="43.23152" lon="0.89066">
        <ele>429.85</ele>
        <time>2014-07-13T12:20:51Z</time>
      </trkpt>
      <trkpt lat="43.23138" lon="0.89057">
        <ele>429.85</ele>
        <time>2014-07-13T12:21:06Z</time>
      </trkpt>
      <trkpt lat="43.23127" lon="0.89051">
        <ele>430.81</ele>
        <time>2014-07-13T12:21:19Z</time>
      </trkpt>
      <trkpt lat="43.23111" lon="0.89041">
        <ele>430.33</ele>
        <time>2014-07-13T12:21:35Z</time>
      </trkpt>
      <trkpt lat="43.23092" lon="0.89033">
        <ele>429.85</ele>
        <time>2014-07-13T12:21:52Z</time>
      </trkpt>
      <trkpt lat="43.23093" lon="0.89033">
        <ele>430.81</ele>
        <time>2014-07-13T12:25:07Z</time>
      </trkpt>
      <trkpt lat="43.2309" lon="0.8902">
        <ele>430.81</ele>
        <time>2014-07-13T12:25:21Z</time>
      </trkpt>
      <trkpt lat="43.23078" lon="0.89011">
        <ele>431.29</ele>
        <time>2014-07-13T12:25:34Z</time>
      </trkpt>
      <trkpt lat="43.23061" lon="0.89009">
        <ele>432.73</ele>
        <time>2014-07-13T12:25:51Z</time>
      </trkpt>
      <trkpt lat="43.23052" lon="0.89005">
        <ele>433.21</ele>
        <time>2014-07-13T12:26:03Z</time>
      </trkpt>
      <trkpt lat="43.2304" lon="0.88999">
        <ele>433.69</ele>
        <time>2014-07-13T12:26:18Z</time>
      </trkpt>
      <trkpt lat="43.23033" lon="0.88991">
        <ele>433.69</ele>
        <time>2014-07-13T12:26:33Z</time>
      </trkpt>
      <trkpt lat="43.23023" lon="0.88978">
        <ele>434.65</ele>
        <time>2014-07-13T12:26:51Z</time>
      </trkpt>
      <trkpt lat="43.23013" lon="0.88965">
        <ele>435.13</ele>
        <time>2014-07-13T12:27:09Z</time>
      </trkpt>
      <trkpt lat="43.23003" lon="0.88949">
        <ele>435.61</ele>
        <time>2014-07-13T12:27:25Z</time>
      </trkpt>
      <trkpt lat="43.22995" lon="0.88942">
        <ele>436.1</ele>
        <time>2014-07-13T12:27:40Z</time>
      </trkpt>
      <trkpt lat="43.22993" lon="0.88936">
        <ele>436.1</ele>
        <time>2014-07-13T12:28:10Z</time>
      </trkpt>
      <trkpt lat="43.2299" lon="0.88935">
        <ele>436.1</ele>
        <time>2014-07-13T12:28:25Z</time>
      </trkpt>
      <trkpt lat="43.2298" lon="0.88924">
        <ele>437.06</ele>
        <time>2014-07-13T12:28:45Z</time>
      </trkpt>
      <trkpt lat="43.22971" lon="0.88913">
        <ele>438.02</ele>
        <time>2014-07-13T12:29:02Z</time>
      </trkpt>
      <trkpt lat="43.22961" lon="0.889">
        <ele>438.02</ele>
        <time>2014-07-13T12:29:22Z</time>
      </trkpt>
      <trkpt lat="43.2295" lon="0.88886">
        <ele>438.98</ele>
        <time>2014-07-13T12:29:38Z</time>
      </trkpt>
      <trkpt lat="43.22934" lon="0.88868">
        <ele>439.94</ele>
        <time>2014-07-13T12:29:57Z</time>
      </trkpt>
      <trkpt lat="43.2292" lon="0.88854">
        <ele>440.9</ele>
        <time>2014-07-13T12:30:17Z</time>
      </trkpt>
      <trkpt lat="43.22909" lon="0.88839">
        <ele>441.38</ele>
        <time>2014-07-13T12:30:32Z</time>
      </trkpt>
      <trkpt lat="43.22899" lon="0.88813">
        <ele>441.86</ele>
        <time>2014-07-13T12:30:53Z</time>
      </trkpt>
      <trkpt lat="43.22888" lon="0.88797">
        <ele>441.86</ele>
        <time>2014-07-13T12:31:11Z</time>
      </trkpt>
      <trkpt lat="43.22877" lon="0.8878">
        <ele>440.9</ele>
        <time>2014-07-13T12:31:28Z</time>
      </trkpt>
      <trkpt lat="43.22866" lon="0.88764">
        <ele>439.94</ele>
        <time>2014-07-13T12:31:44Z</time>
      </trkpt>
      <trkpt lat="43.22833" lon="0.88729">
        <ele>440.42</ele>
        <time>2014-07-13T12:32:00Z</time>
      </trkpt>
      <trkpt lat="43.22833" lon="0.88728">
        <ele>438.98</ele>
        <time>2014-07-13T12:40:13Z</time>
      </trkpt>
      <trkpt lat="43.22824" lon="0.88719">
        <ele>438.98</ele>
        <time>2014-07-13T12:40:29Z</time>
      </trkpt>
      <trkpt lat="43.22812" lon="0.88715">
        <ele>437.54</ele>
        <time>2014-07-13T12:40:43Z</time>
      </trkpt>
      <trkpt lat="43.22802" lon="0.88712">
        <ele>436.1</ele>
        <time>2014-07-13T12:40:56Z</time>
      </trkpt>
      <trkpt lat="43.22785" lon="0.88705">
        <ele>434.17</ele>
        <time>2014-07-13T12:41:13Z</time>
      </trkpt>
      <trkpt lat="43.22766" lon="0.88699">
        <ele>431.77</ele>
        <time>2014-07-13T12:41:32Z</time>
      </trkpt>
      <trkpt lat="43.22751" lon="0.88695">
        <ele>429.85</ele>
        <time>2014-07-13T12:41:47Z</time>
      </trkpt>
      <trkpt lat="43.22737" lon="0.88687">
        <ele>428.89</ele>
        <time>2014-07-13T12:42:05Z</time>
      </trkpt>
      <trkpt lat="43.22724" lon="0.8867">
        <ele>426.96</ele>
        <time>2014-07-13T12:42:23Z</time>
      </trkpt>
      <trkpt lat="43.2271" lon="0.8866">
        <ele>425.52</ele>
        <time>2014-07-13T12:42:39Z</time>
      </trkpt>
      <trkpt lat="43.2267" lon="0.88642">
        <ele>425.52</ele>
        <time>2014-07-13T12:42:55Z</time>
      </trkpt>
      <trkpt lat="43.2267" lon="0.88641">
        <ele>409.18</ele>
        <time>2014-07-13T12:54:09Z</time>
      </trkpt>
      <trkpt lat="43.22569" lon="0.88653">
        <ele>408.7</ele>
        <time>2014-07-13T12:54:21Z</time>
      </trkpt>
      <trkpt lat="43.22559" lon="0.88652">
        <ele>408.22</ele>
        <time>2014-07-13T12:54:33Z</time>
      </trkpt>
      <trkpt lat="43.22548" lon="0.88648">
        <ele>407.74</ele>
        <time>2014-07-13T12:54:45Z</time>
      </trkpt>
      <trkpt lat="43.22547" lon="0.88641">
        <ele>408.22</ele>
        <time>2014-07-13T12:54:54Z</time>
      </trkpt>
      <trkpt lat="43.22545" lon="0.88629">
        <ele>408.22</ele>
        <time>2014-07-13T12:55:05Z</time>
      </trkpt>
      <trkpt lat="43.22539" lon="0.88616">
        <ele>409.18</ele>
        <time>2014-07-13T12:55:18Z</time>
      </trkpt>
      <trkpt lat="43.22533" lon="0.88602">
        <ele>410.14</ele>
        <time>2014-07-13T12:55:28Z</time>
      </trkpt>
      <trkpt lat="43.22526" lon="0.88584">
        <ele>411.58</ele>
        <time>2014-07-13T12:55:40Z</time>
      </trkpt>
      <trkpt lat="43.22513" lon="0.88563">
        <ele>412.06</ele>
        <time>2014-07-13T12:55:54Z</time>
      </trkpt>
      <trkpt lat="43.22494" lon="0.8855">
        <ele>413.02</ele>
        <time>2014-07-13T12:56:14Z</time>
      </trkpt>
      <trkpt lat="43.22473" lon="0.88536">
        <ele>413.5</ele>
        <time>2014-07-13T12:56:33Z</time>
      </trkpt>
      <trkpt lat="43.22448" lon="0.88519">
        <ele>413.98</ele>
        <time>2014-07-13T12:56:53Z</time>
      </trkpt>
      <trkpt lat="43.22447" lon="0.88517">
        <ele>415.91</ele>
        <time>2014-07-13T13:15:10Z</time>
      </trkpt>
      <trkpt lat="43.22449" lon="0.88558">
        <ele>418.31</ele>
        <time>2014-07-13T13:15:28Z</time>
      </trkpt>
      <trkpt lat="43.22452" lon="0.88575">
        <ele>419.27</ele>
        <time>2014-07-13T13:15:42Z</time>
      </trkpt>
      <trkpt lat="43.22452" lon="0.88603">
        <ele>422.16</ele>
        <time>2014-07-13T13:16:03Z</time>
      </trkpt>
      <trkpt lat="43.22451" lon="0.88622">
        <ele>424.56</ele>
        <time>2014-07-13T13:16:23Z</time>
      </trkpt>
      <trkpt lat="43.2245" lon="0.88636">
        <ele>426.48</ele>
        <time>2014-07-13T13:16:39Z</time>
      </trkpt>
      <trkpt lat="43.22445" lon="0.88651">
        <ele>427.92</ele>
        <time>2014-07-13T13:16:55Z</time>
      </trkpt>
      <trkpt lat="43.22443" lon="0.88655">
        <ele>427.92</ele>
        <time>2014-07-13T13:17:15Z</time>
      </trkpt>
      <trkpt lat="43.22434" lon="0.88675">
        <ele>430.33</ele>
        <time>2014-07-13T13:17:35Z</time>
      </trkpt>
      <trkpt lat="43.22434" lon="0.88684">
        <ele>431.29</ele>
        <time>2014-07-13T13:17:43Z</time>
      </trkpt>
      <trkpt lat="43.22431" lon="0.88704">
        <ele>433.21</ele>
        <time>2014-07-13T13:18:00Z</time>
      </trkpt>
      <trkpt lat="43.22429" lon="0.88723">
        <ele>435.61</ele>
        <time>2014-07-13T13:18:14Z</time>
      </trkpt>
      <trkpt lat="43.22427" lon="0.88738">
        <ele>437.54</ele>
        <time>2014-07-13T13:18:30Z</time>
      </trkpt>
      <trkpt lat="43.22435" lon="0.88749">
        <ele>438.02</ele>
        <time>2014-07-13T13:18:49Z</time>
      </trkpt>
      <trkpt lat="43.22428" lon="0.88767">
        <ele>439.46</ele>
        <time>2014-07-13T13:19:04Z</time>
      </trkpt>
      <trkpt lat="43.22425" lon="0.88788">
        <ele>440.42</ele>
        <time>2014-07-13T13:19:19Z</time>
      </trkpt>
      <trkpt lat="43.2242" lon="0.888">
        <ele>441.38</ele>
        <time>2014-07-13T13:19:33Z</time>
      </trkpt>
      <trkpt lat="43.22419" lon="0.88804">
        <ele>441.38</ele>
        <time>2014-07-13T13:19:36Z</time>
      </trkpt>
      <trkpt lat="43.22418" lon="0.88813">
        <ele>442.82</ele>
        <time>2014-07-13T13:19:48Z</time>
      </trkpt>
      <trkpt lat="43.22415" lon="0.88819">
        <ele>443.31</ele>
        <time>2014-07-13T13:19:52Z</time>
      </trkpt>
      <trkpt lat="43.22413" lon="0.88832">
        <ele>445.23</ele>
        <time>2014-07-13T13:20:07Z</time>
      </trkpt>
      <trkpt lat="43.22407" lon="0.8885">
        <ele>447.63</ele>
        <time>2014-07-13T13:20:25Z</time>
      </trkpt>
      <trkpt lat="43.22407" lon="0.88854">
        <ele>447.63</ele>
        <time>2014-07-13T13:20:40Z</time>
      </trkpt>
      <trkpt lat="43.22402" lon="0.88867">
        <ele>450.03</ele>
        <time>2014-07-13T13:20:56Z</time>
      </trkpt>
      <trkpt lat="43.22391" lon="0.88886">
        <ele>452.44</ele>
        <time>2014-07-13T13:21:16Z</time>
      </trkpt>
      <trkpt lat="43.22387" lon="0.88904">
        <ele>454.84</ele>
        <time>2014-07-13T13:21:32Z</time>
      </trkpt>
      <trkpt lat="43.22382" lon="0.88912">
        <ele>454.36</ele>
        <time>2014-07-13T13:21:46Z</time>
      </trkpt>
      <trkpt lat="43.22374" lon="0.88931">
        <ele>455.8</ele>
        <time>2014-07-13T13:22:02Z</time>
      </trkpt>
      <trkpt lat="43.2236" lon="0.88947">
        <ele>457.72</ele>
        <time>2014-07-13T13:22:17Z</time>
      </trkpt>
      <trkpt lat="43.22351" lon="0.88962">
        <ele>459.17</ele>
        <time>2014-07-13T13:22:33Z</time>
      </trkpt>
      <trkpt lat="43.22346" lon="0.88987">
        <ele>459.17</ele>
        <time>2014-07-13T13:22:53Z</time>
      </trkpt>
      <trkpt lat="43.22337" lon="0.8901">
        <ele>458.21</ele>
        <time>2014-07-13T13:23:15Z</time>
      </trkpt>
      <trkpt lat="43.22338" lon="0.89022">
        <ele>457.72</ele>
        <time>2014-07-13T13:23:33Z</time>
      </trkpt>
      <trkpt lat="43.22341" lon="0.89036">
        <ele>458.21</ele>
        <time>2014-07-13T13:23:44Z</time>
      </trkpt>
      <trkpt lat="43.2235" lon="0.89055">
        <ele>458.21</ele>
        <time>2014-07-13T13:24:01Z</time>
      </trkpt>
      <trkpt lat="43.22366" lon="0.89056">
        <ele>458.69</ele>
        <time>2014-07-13T13:24:18Z</time>
      </trkpt>
      <trkpt lat="43.22374" lon="0.89062">
        <ele>458.69</ele>
        <time>2014-07-13T13:24:26Z</time>
      </trkpt>
      <trkpt lat="43.22382" lon="0.89066">
        <ele>458.69</ele>
        <time>2014-07-13T13:24:42Z</time>
      </trkpt>
      <trkpt lat="43.22395" lon="0.89074">
        <ele>459.17</ele>
        <time>2014-07-13T13:24:58Z</time>
      </trkpt>
      <trkpt lat="43.2241" lon="0.89086">
        <ele>459.65</ele>
        <time>2014-07-13T13:25:15Z</time>
      </trkpt>
      <trkpt lat="43.22424" lon="0.89091">
        <ele>459.65</ele>
        <time>2014-07-13T13:25:33Z</time>
      </trkpt>
      <trkpt lat="43.22438" lon="0.89097">
        <ele>460.61</ele>
        <time>2014-07-13T13:25:51Z</time>
      </trkpt>
      <trkpt lat="43.22459" lon="0.89099">
        <ele>460.61</ele>
        <time>2014-07-13T13:26:10Z</time>
      </trkpt>
      <trkpt lat="43.22475" lon="0.891">
        <ele>461.57</ele>
        <time>2014-07-13T13:26:27Z</time>
      </trkpt>
      <trkpt lat="43.22493" lon="0.89104">
        <ele>461.57</ele>
        <time>2014-07-13T13:26:45Z</time>
      </trkpt>
      <trkpt lat="43.22518" lon="0.89113">
        <ele>461.09</ele>
        <time>2014-07-13T13:27:08Z</time>
      </trkpt>
      <trkpt lat="43.22536" lon="0.89121">
        <ele>461.09</ele>
        <time>2014-07-13T13:27:27Z</time>
      </trkpt>
      <trkpt lat="43.22536" lon="0.8912">
        <ele>461.57</ele>
        <time>2014-07-13T13:38:05Z</time>
      </trkpt>
      <trkpt lat="43.22575" lon="0.89096">
        <ele>461.57</ele>
        <time>2014-07-13T13:38:23Z</time>
      </trkpt>
      <trkpt lat="43.2259" lon="0.89084">
        <ele>462.05</ele>
        <time>2014-07-13T13:38:38Z</time>
      </trkpt>
      <trkpt lat="43.22603" lon="0.89067">
        <ele>462.05</ele>
        <time>2014-07-13T13:38:55Z</time>
      </trkpt>
      <trkpt lat="43.22617" lon="0.89051">
        <ele>461.57</ele>
        <time>2014-07-13T13:39:11Z</time>
      </trkpt>
      <trkpt lat="43.22629" lon="0.89038">
        <ele>461.57</ele>
        <time>2014-07-13T13:39:26Z</time>
      </trkpt>
      <trkpt lat="43.22641" lon="0.89027">
        <ele>461.57</ele>
        <time>2014-07-13T13:39:42Z</time>
      </trkpt>
      <trkpt lat="43.22652" lon="0.8902">
        <ele>460.61</ele>
        <time>2014-07-13T13:39:58Z</time>
      </trkpt>
      <trkpt lat="43.22663" lon="0.89012">
        <ele>460.13</ele>
        <time>2014-07-13T13:40:12Z</time>
      </trkpt>
      <trkpt lat="43.22676" lon="0.89015">
        <ele>460.13</ele>
        <time>2014-07-13T13:40:26Z</time>
      </trkpt>
      <trkpt lat="43.22689" lon="0.89025">
        <ele>459.65</ele>
        <time>2014-07-13T13:40:43Z</time>
      </trkpt>
      <trkpt lat="43.22689" lon="0.89025">
        <ele>460.13</ele>
        <time>2014-07-13T14:03:33Z</time>
      </trkpt>
      <trkpt lat="43.22728" lon="0.89045">
        <ele>459.65</ele>
        <time>2014-07-13T14:03:49Z</time>
      </trkpt>
      <trkpt lat="43.22736" lon="0.89039">
        <ele>459.65</ele>
        <time>2014-07-13T14:04:09Z</time>
      </trkpt>
      <trkpt lat="43.22747" lon="0.89041">
        <ele>458.69</ele>
        <time>2014-07-13T14:04:23Z</time>
      </trkpt>
      <trkpt lat="43.22758" lon="0.89045">
        <ele>457.24</ele>
        <time>2014-07-13T14:04:40Z</time>
      </trkpt>
      <trkpt lat="43.2277" lon="0.89043">
        <ele>457.72</ele>
        <time>2014-07-13T14:04:59Z</time>
      </trkpt>
      <trkpt lat="43.22771" lon="0.89042">
        <ele>457.72</ele>
        <time>2014-07-13T14:10:05Z</time>
      </trkpt>
      <trkpt lat="43.22789" lon="0.89017">
        <ele>457.24</ele>
        <time>2014-07-13T14:10:21Z</time>
      </trkpt>
      <trkpt lat="43.22795" lon="0.89012">
        <ele>457.72</ele>
        <time>2014-07-13T14:10:41Z</time>
      </trkpt>
      <trkpt lat="43.22804" lon="0.89003">
        <ele>457.24</ele>
        <time>2014-07-13T14:10:59Z</time>
      </trkpt>
      <trkpt lat="43.22807" lon="0.88994">
        <ele>457.72</ele>
        <time>2014-07-13T14:11:16Z</time>
      </trkpt>
      <trkpt lat="43.22813" lon="0.88996">
        <ele>456.76</ele>
        <time>2014-07-13T14:11:31Z</time>
      </trkpt>
      <trkpt lat="43.2282" lon="0.88993">
        <ele>455.8</ele>
        <time>2014-07-13T14:11:46Z</time>
      </trkpt>
      <trkpt lat="43.2283" lon="0.89005">
        <ele>454.84</ele>
        <time>2014-07-13T14:12:08Z</time>
      </trkpt>
      <trkpt lat="43.22832" lon="0.89008">
        <ele>455.32</ele>
        <time>2014-07-13T14:12:27Z</time>
      </trkpt>
      <trkpt lat="43.22832" lon="0.89013">
        <ele>454.84</ele>
        <time>2014-07-13T14:12:49Z</time>
      </trkpt>
      <trkpt lat="43.22842" lon="0.8901">
        <ele>453.88</ele>
        <time>2014-07-13T14:13:07Z</time>
      </trkpt>
      <trkpt lat="43.22851" lon="0.89015">
        <ele>453.4</ele>
        <time>2014-07-13T14:13:26Z</time>
      </trkpt>
      <trkpt lat="43.22862" lon="0.89019">
        <ele>452.92</ele>
        <time>2014-07-13T14:13:47Z</time>
      </trkpt>
      <trkpt lat="43.22864" lon="0.89018">
        <ele>452.44</ele>
        <time>2014-07-13T14:14:08Z</time>
      </trkpt>
      <trkpt lat="43.22863" lon="0.89033">
        <ele>452.44</ele>
        <time>2014-07-13T14:14:24Z</time>
      </trkpt>
      <trkpt lat="43.22866" lon="0.89039">
        <ele>451.96</ele>
        <time>2014-07-13T14:14:47Z</time>
      </trkpt>
      <trkpt lat="43.22864" lon="0.89047">
        <ele>451.48</ele>
        <time>2014-07-13T14:15:00Z</time>
      </trkpt>
      <trkpt lat="43.22864" lon="0.89046">
        <ele>451</ele>
        <time>2014-07-13T14:15:20Z</time>
      </trkpt>
      <trkpt lat="43.22863" lon="0.89061">
        <ele>449.55</ele>
        <time>2014-07-13T14:15:34Z</time>
      </trkpt>
      <trkpt lat="43.22868" lon="0.89073">
        <ele>449.07</ele>
        <time>2014-07-13T14:15:52Z</time>
      </trkpt>
      <trkpt lat="43.22877" lon="0.89075">
        <ele>448.59</ele>
        <time>2014-07-13T14:16:11Z</time>
      </trkpt>
      <trkpt lat="43.22885" lon="0.89078">
        <ele>448.59</ele>
        <time>2014-07-13T14:16:29Z</time>
      </trkpt>
      <trkpt lat="43.2289" lon="0.89064">
        <ele>449.07</ele>
        <time>2014-07-13T14:16:42Z</time>
      </trkpt>
      <trkpt lat="43.22894" lon="0.89045">
        <ele>449.07</ele>
        <time>2014-07-13T14:16:58Z</time>
      </trkpt>
      <trkpt lat="43.22895" lon="0.89039">
        <ele>449.55</ele>
        <time>2014-07-13T14:17:11Z</time>
      </trkpt>
      <trkpt lat="43.22901" lon="0.89024">
        <ele>450.52</ele>
        <time>2014-07-13T14:17:26Z</time>
      </trkpt>
      <trkpt lat="43.22901" lon="0.89023">
        <ele>451</ele>
        <time>2014-07-13T14:17:37Z</time>
      </trkpt>
      <trkpt lat="43.22911" lon="0.89006">
        <ele>450.52</ele>
        <time>2014-07-13T14:17:53Z</time>
      </trkpt>
      <trkpt lat="43.22916" lon="0.88995">
        <ele>450.03</ele>
        <time>2014-07-13T14:18:08Z</time>
      </trkpt>
      <trkpt lat="43.22922" lon="0.88984">
        <ele>449.55</ele>
        <time>2014-07-13T14:18:20Z</time>
      </trkpt>
      <trkpt lat="43.22927" lon="0.8897">
        <ele>449.07</ele>
        <time>2014-07-13T14:18:34Z</time>
      </trkpt>
      <trkpt lat="43.22927" lon="0.8897">
        <ele>449.07</ele>
        <time>2014-07-13T14:21:18Z</time>
      </trkpt>
      <trkpt lat="43.22941" lon="0.88962">
        <ele>448.59</ele>
        <time>2014-07-13T14:21:38Z</time>
      </trkpt>
      <trkpt lat="43.22947" lon="0.88952">
        <ele>447.15</ele>
        <time>2014-07-13T14:21:53Z</time>
      </trkpt>
      <trkpt lat="43.22955" lon="0.88938">
        <ele>444.75</ele>
        <time>2014-07-13T14:22:08Z</time>
      </trkpt>
      <trkpt lat="43.22964" lon="0.88927">
        <ele>442.34</ele>
        <time>2014-07-13T14:22:23Z</time>
      </trkpt>
      <trkpt lat="43.22973" lon="0.88922">
        <ele>440.9</ele>
        <time>2014-07-13T14:22:42Z</time>
      </trkpt>
      <trkpt lat="43.22978" lon="0.88924">
        <ele>440.9</ele>
        <time>2014-07-13T14:22:57Z</time>
      </trkpt>
      <trkpt lat="43.22989" lon="0.88934">
        <ele>439.94</ele>
        <time>2014-07-13T14:23:16Z</time>
      </trkpt>
      <trkpt lat="43.22991" lon="0.88937">
        <ele>440.42</ele>
        <time>2014-07-13T14:23:26Z</time>
      </trkpt>
      <trkpt lat="43.22999" lon="0.88949">
        <ele>439.94</ele>
        <time>2014-07-13T14:23:41Z</time>
      </trkpt>
      <trkpt lat="43.23015" lon="0.88968">
        <ele>438.5</ele>
        <time>2014-07-13T14:24:00Z</time>
      </trkpt>
      <trkpt lat="43.23024" lon="0.88981">
        <ele>438.5</ele>
        <time>2014-07-13T14:24:15Z</time>
      </trkpt>
      <trkpt lat="43.23034" lon="0.88991">
        <ele>438.02</ele>
        <time>2014-07-13T14:24:30Z</time>
      </trkpt>
      <trkpt lat="43.23051" lon="0.89003">
        <ele>436.58</ele>
        <time>2014-07-13T14:24:51Z</time>
      </trkpt>
      <trkpt lat="43.23064" lon="0.89006">
        <ele>436.1</ele>
        <time>2014-07-13T14:25:08Z</time>
      </trkpt>
      <trkpt lat="43.2308" lon="0.89011">
        <ele>435.13</ele>
        <time>2014-07-13T14:25:25Z</time>
      </trkpt>
      <trkpt lat="43.23093" lon="0.89021">
        <ele>434.65</ele>
        <time>2014-07-13T14:25:41Z</time>
      </trkpt>
      <trkpt lat="43.23101" lon="0.8901">
        <ele>433.69</ele>
        <time>2014-07-13T14:25:56Z</time>
      </trkpt>
      <trkpt lat="43.23104" lon="0.88995">
        <ele>432.73</ele>
        <time>2014-07-13T14:26:12Z</time>
      </trkpt>
      <trkpt lat="43.23102" lon="0.88997">
        <ele>433.21</ele>
        <time>2014-07-13T14:26:36Z</time>
      </trkpt>
      <trkpt lat="43.23107" lon="0.88994">
        <ele>432.25</ele>
        <time>2014-07-13T14:26:59Z</time>
      </trkpt>
      <trkpt lat="43.23112" lon="0.88974">
        <ele>432.25</ele>
        <time>2014-07-13T14:27:14Z</time>
      </trkpt>
      <trkpt lat="43.23118" lon="0.88952">
        <ele>429.85</ele>
        <time>2014-07-13T14:27:32Z</time>
      </trkpt>
      <trkpt lat="43.23125" lon="0.88934">
        <ele>427.44</ele>
        <time>2014-07-13T14:27:50Z</time>
      </trkpt>
      <trkpt lat="43.23132" lon="0.88922">
        <ele>425.04</ele>
        <time>2014-07-13T14:28:03Z</time>
      </trkpt>
      <trkpt lat="43.23131" lon="0.88914">
        <ele>424.08</ele>
        <time>2014-07-13T14:28:24Z</time>
      </trkpt>
      <trkpt lat="43.23135" lon="0.88909">
        <ele>422.16</ele>
        <time>2014-07-13T14:28:30Z</time>
      </trkpt>
      <trkpt lat="43.23142" lon="0.88899">
        <ele>419.75</ele>
        <time>2014-07-13T14:28:44Z</time>
      </trkpt>
      <trkpt lat="43.23147" lon="0.88889">
        <ele>417.35</ele>
        <time>2014-07-13T14:28:57Z</time>
      </trkpt>
      <trkpt lat="43.23151" lon="0.88877">
        <ele>414.95</ele>
        <time>2014-07-13T14:29:11Z</time>
      </trkpt>
      <trkpt lat="43.23155" lon="0.88865">
        <ele>412.06</ele>
        <time>2014-07-13T14:29:22Z</time>
      </trkpt>
      <trkpt lat="43.23161" lon="0.8885">
        <ele>411.1</ele>
        <time>2014-07-13T14:29:38Z</time>
      </trkpt>
      <trkpt lat="43.23176" lon="0.88796">
        <ele>409.18</ele>
        <time>2014-07-13T14:29:55Z</time>
      </trkpt>
      <trkpt lat="43.23177" lon="0.88796">
        <ele>405.81</ele>
        <time>2014-07-13T14:33:03Z</time>
      </trkpt>
      <trkpt lat="43.23191" lon="0.8877">
        <ele>403.41</ele>
        <time>2014-07-13T14:33:18Z</time>
      </trkpt>
      <trkpt lat="43.23192" lon="0.88747">
        <ele>401.49</ele>
        <time>2014-07-13T14:33:35Z</time>
      </trkpt>
      <trkpt lat="43.23195" lon="0.88739">
        <ele>401.49</ele>
        <time>2014-07-13T14:33:55Z</time>
      </trkpt>
      <trkpt lat="43.23206" lon="0.8872">
        <ele>399.57</ele>
        <time>2014-07-13T14:34:14Z</time>
      </trkpt>
      <trkpt lat="43.23212" lon="0.88707">
        <ele>401.97</ele>
        <time>2014-07-13T14:34:30Z</time>
      </trkpt>
      <trkpt lat="43.23216" lon="0.88698">
        <ele>401.49</ele>
        <time>2014-07-13T14:34:49Z</time>
      </trkpt>
      <trkpt lat="43.23223" lon="0.8868">
        <ele>400.53</ele>
        <time>2014-07-13T14:35:06Z</time>
      </trkpt>
      <trkpt lat="43.23227" lon="0.88663">
        <ele>398.12</ele>
        <time>2014-07-13T14:35:24Z</time>
      </trkpt>
      <trkpt lat="43.23231" lon="0.88646">
        <ele>396.2</ele>
        <time>2014-07-13T14:35:42Z</time>
      </trkpt>
      <trkpt lat="43.23239" lon="0.8863">
        <ele>394.28</ele>
        <time>2014-07-13T14:36:01Z</time>
      </trkpt>
      <trkpt lat="43.23243" lon="0.88619">
        <ele>392.36</ele>
        <time>2014-07-13T14:36:17Z</time>
      </trkpt>
      <trkpt lat="43.23251" lon="0.88605">
        <ele>389.95</ele>
        <time>2014-07-13T14:36:32Z</time>
      </trkpt>
      <trkpt lat="43.23258" lon="0.88591">
        <ele>388.99</ele>
        <time>2014-07-13T14:36:48Z</time>
      </trkpt>
      <trkpt lat="43.23262" lon="0.88576">
        <ele>386.59</ele>
        <time>2014-07-13T14:37:03Z</time>
      </trkpt>
      <trkpt lat="43.23269" lon="0.88562">
        <ele>385.63</ele>
        <time>2014-07-13T14:37:17Z</time>
      </trkpt>
      <trkpt lat="43.23274" lon="0.88548">
        <ele>384.18</ele>
        <time>2014-07-13T14:37:31Z</time>
      </trkpt>
      <trkpt lat="43.23277" lon="0.88532">
        <ele>382.74</ele>
        <time>2014-07-13T14:37:48Z</time>
      </trkpt>
      <trkpt lat="43.23281" lon="0.88511">
        <ele>380.34</ele>
        <time>2014-07-13T14:38:06Z</time>
      </trkpt>
      <trkpt lat="43.23282" lon="0.88501">
        <ele>379.38</ele>
        <time>2014-07-13T14:38:28Z</time>
      </trkpt>
      <trkpt lat="43.23288" lon="0.8849">
        <ele>378.9</ele>
        <time>2014-07-13T14:38:47Z</time>
      </trkpt>
      <trkpt lat="43.23293" lon="0.8848">
        <ele>376.97</ele>
        <time>2014-07-13T14:39:09Z</time>
      </trkpt>
      <trkpt lat="43.23293" lon="0.88482">
        <ele>376.97</ele>
        <time>2014-07-13T14:39:24Z</time>
      </trkpt>
      <trkpt lat="43.23295" lon="0.88468">
        <ele>376.01</ele>
        <time>2014-07-13T14:39:38Z</time>
      </trkpt>
      <trkpt lat="43.23304" lon="0.88465">
        <ele>375.05</ele>
        <time>2014-07-13T14:39:52Z</time>
      </trkpt>
      <trkpt lat="43.2332" lon="0.88466">
        <ele>372.65</ele>
        <time>2014-07-13T14:40:10Z</time>
      </trkpt>
      <trkpt lat="43.23337" lon="0.88472">
        <ele>370.73</ele>
        <time>2014-07-13T14:40:30Z</time>
      </trkpt>
      <trkpt lat="43.23363" lon="0.88487">
        <ele>369.76</ele>
        <time>2014-07-13T14:40:49Z</time>
      </trkpt>
      <trkpt lat="43.23362" lon="0.88486">
        <ele>372.17</ele>
        <time>2014-07-13T14:46:03Z</time>
      </trkpt>
      <trkpt lat="43.23373" lon="0.88489">
        <ele>371.69</ele>
        <time>2014-07-13T14:46:16Z</time>
      </trkpt>
      <trkpt lat="43.23382" lon="0.8849">
        <ele>371.69</ele>
        <time>2014-07-13T14:46:25Z</time>
      </trkpt>
      <trkpt lat="43.23394" lon="0.88488">
        <ele>371.69</ele>
        <time>2014-07-13T14:46:38Z</time>
      </trkpt>
      <trkpt lat="43.23411" lon="0.88484">
        <ele>369.76</ele>
        <time>2014-07-13T14:46:50Z</time>
      </trkpt>
      <trkpt lat="43.23431" lon="0.88474">
        <ele>367.84</ele>
        <time>2014-07-13T14:47:07Z</time>
      </trkpt>
      <trkpt lat="43.23449" lon="0.88468">
        <ele>365.92</ele>
        <time>2014-07-13T14:47:21Z</time>
      </trkpt>
      <trkpt lat="43.23463" lon="0.88455">
        <ele>363.04</ele>
        <time>2014-07-13T14:47:36Z</time>
      </trkpt>
      <trkpt lat="43.23476" lon="0.88444">
        <ele>360.15</ele>
        <time>2014-07-13T14:47:52Z</time>
      </trkpt>
      <trkpt lat="43.23492" lon="0.8845">
        <ele>357.75</ele>
        <time>2014-07-13T14:48:08Z</time>
      </trkpt>
      <trkpt lat="43.23503" lon="0.88458">
        <ele>355.34</ele>
        <time>2014-07-13T14:48:19Z</time>
      </trkpt>
      <trkpt lat="43.23519" lon="0.88469">
        <ele>352.94</ele>
        <time>2014-07-13T14:48:38Z</time>
      </trkpt>
      <trkpt lat="43.23533" lon="0.88462">
        <ele>350.54</ele>
        <time>2014-07-13T14:48:55Z</time>
      </trkpt>
      <trkpt lat="43.23543" lon="0.88448">
        <ele>348.13</ele>
        <time>2014-07-13T14:49:12Z</time>
      </trkpt>
      <trkpt lat="43.23546" lon="0.88447">
        <ele>346.69</ele>
        <time>2014-07-13T14:49:21Z</time>
      </trkpt>
      <trkpt lat="43.23549" lon="0.88474">
        <ele>349.58</ele>
        <time>2014-07-13T14:49:37Z</time>
      </trkpt>
      <trkpt lat="43.23549" lon="0.88473">
        <ele>350.06</ele>
        <time>2014-07-13T14:51:10Z</time>
      </trkpt>
      <trkpt lat="43.23551" lon="0.88482">
        <ele>351.02</ele>
        <time>2014-07-13T14:51:39Z</time>
      </trkpt>
      <trkpt lat="43.2355" lon="0.88498">
        <ele>352.94</ele>
        <time>2014-07-13T14:51:52Z</time>
      </trkpt>
      <trkpt lat="43.23548" lon="0.8851">
        <ele>353.9</ele>
        <time>2014-07-13T14:52:06Z</time>
      </trkpt>
      <trkpt lat="43.23548" lon="0.88519">
        <ele>354.86</ele>
        <time>2014-07-13T14:52:22Z</time>
      </trkpt>
      <trkpt lat="43.23547" lon="0.88535">
        <ele>356.79</ele>
        <time>2014-07-13T14:52:39Z</time>
      </trkpt>
      <trkpt lat="43.23545" lon="0.88548">
        <ele>357.27</ele>
        <time>2014-07-13T14:52:55Z</time>
      </trkpt>
      <trkpt lat="43.23544" lon="0.88556">
        <ele>358.23</ele>
        <time>2014-07-13T14:53:12Z</time>
      </trkpt>
      <trkpt lat="43.23542" lon="0.88566">
        <ele>358.23</ele>
        <time>2014-07-13T14:53:41Z</time>
      </trkpt>
      <trkpt lat="43.23539" lon="0.88579">
        <ele>360.63</ele>
        <time>2014-07-13T14:53:57Z</time>
      </trkpt>
      <trkpt lat="43.23531" lon="0.88602">
        <ele>362.07</ele>
        <time>2014-07-13T14:54:14Z</time>
      </trkpt>
      <trkpt lat="43.23521" lon="0.88625">
        <ele>364.48</ele>
        <time>2014-07-13T14:54:30Z</time>
      </trkpt>
      <trkpt lat="43.23518" lon="0.8864">
        <ele>366.88</ele>
        <time>2014-07-13T14:54:46Z</time>
      </trkpt>
      <trkpt lat="43.23517" lon="0.8866">
        <ele>370.24</ele>
        <time>2014-07-13T14:55:01Z</time>
      </trkpt>
      <trkpt lat="43.23521" lon="0.88677">
        <ele>372.65</ele>
        <time>2014-07-13T14:55:16Z</time>
      </trkpt>
      <trkpt lat="43.23527" lon="0.88691">
        <ele>374.09</ele>
        <time>2014-07-13T14:55:32Z</time>
      </trkpt>
      <trkpt lat="43.2353" lon="0.88699">
        <ele>374.57</ele>
        <time>2014-07-13T14:55:50Z</time>
      </trkpt>
      <trkpt lat="43.23537" lon="0.88713">
        <ele>375.05</ele>
        <time>2014-07-13T14:56:05Z</time>
      </trkpt>
      <trkpt lat="43.23545" lon="0.88727">
        <ele>376.01</ele>
        <time>2014-07-13T14:56:19Z</time>
      </trkpt>
      <trkpt lat="43.23559" lon="0.8875">
        <ele>378.42</ele>
        <time>2014-07-13T14:56:36Z</time>
      </trkpt>
      <trkpt lat="43.23565" lon="0.88766">
        <ele>380.34</ele>
        <time>2014-07-13T14:56:52Z</time>
      </trkpt>
      <trkpt lat="43.23573" lon="0.88782">
        <ele>382.26</ele>
        <time>2014-07-13T14:57:08Z</time>
      </trkpt>
      <trkpt lat="43.23576" lon="0.88792">
        <ele>383.22</ele>
        <time>2014-07-13T14:57:22Z</time>
      </trkpt>
      <trkpt lat="43.2358" lon="0.88815">
        <ele>385.15</ele>
        <time>2014-07-13T14:57:40Z</time>
      </trkpt>
      <trkpt lat="43.23581" lon="0.88823">
        <ele>385.15</ele>
        <time>2014-07-13T14:57:55Z</time>
      </trkpt>
      <trkpt lat="43.23582" lon="0.88879">
        <ele>387.07</ele>
        <time>2014-07-13T14:58:13Z</time>
      </trkpt>
      <trkpt lat="43.23583" lon="0.88879">
        <ele>389.95</ele>
        <time>2014-07-13T15:02:49Z</time>
      </trkpt>
      <trkpt lat="43.23582" lon="0.8889">
        <ele>391.39</ele>
        <time>2014-07-13T15:02:58Z</time>
      </trkpt>
      <trkpt lat="43.23579" lon="0.88912">
        <ele>392.36</ele>
        <time>2014-07-13T15:03:13Z</time>
      </trkpt>
      <trkpt lat="43.23575" lon="0.88934">
        <ele>394.28</ele>
        <time>2014-07-13T15:03:29Z</time>
      </trkpt>
      <trkpt lat="43.23567" lon="0.88957">
        <ele>395.72</ele>
        <time>2014-07-13T15:03:45Z</time>
      </trkpt>
      <trkpt lat="43.23556" lon="0.88976">
        <ele>398.6</ele>
        <time>2014-07-13T15:04:03Z</time>
      </trkpt>
      <trkpt lat="43.23553" lon="0.89">
        <ele>401.01</ele>
        <time>2014-07-13T15:04:20Z</time>
      </trkpt>
      <trkpt lat="43.23552" lon="0.89006">
        <ele>401.49</ele>
        <time>2014-07-13T15:04:24Z</time>
      </trkpt>
      <trkpt lat="43.23556" lon="0.89037">
        <ele>403.41</ele>
        <time>2014-07-13T15:04:40Z</time>
      </trkpt>
      <trkpt lat="43.23606" lon="0.89165">
        <ele>402.93</ele>
        <time>2014-07-13T15:04:55Z</time>
      </trkpt>
      <trkpt lat="43.23605" lon="0.89163">
        <ele>406.29</ele>
        <time>2014-07-13T15:10:26Z</time>
      </trkpt>
      <trkpt lat="43.23613" lon="0.89183">
        <ele>405.33</ele>
        <time>2014-07-13T15:10:42Z</time>
      </trkpt>
      <trkpt lat="43.23619" lon="0.89201">
        <ele>404.85</ele>
        <time>2014-07-13T15:10:58Z</time>
      </trkpt>
      <trkpt lat="43.23619" lon="0.89217">
        <ele>405.33</ele>
        <time>2014-07-13T15:11:13Z</time>
      </trkpt>
      <trkpt lat="43.23606" lon="0.89224">
        <ele>406.29</ele>
        <time>2014-07-13T15:11:28Z</time>
      </trkpt>
      <trkpt lat="43.23591" lon="0.89228">
        <ele>407.74</ele>
        <time>2014-07-13T15:11:46Z</time>
      </trkpt>
      <trkpt lat="43.23579" lon="0.89231">
        <ele>408.22</ele>
        <time>2014-07-13T15:12:02Z</time>
      </trkpt>
      <trkpt lat="43.23575" lon="0.89238">
        <ele>408.7</ele>
        <time>2014-07-13T15:12:17Z</time>
      </trkpt>
      <trkpt lat="43.23582" lon="0.89255">
        <ele>407.74</ele>
        <time>2014-07-13T15:12:35Z</time>
      </trkpt>
      <trkpt lat="43.23587" lon="0.89269">
        <ele>406.77</ele>
        <time>2014-07-13T15:12:49Z</time>
      </trkpt>
      <trkpt lat="43.23597" lon="0.89291">
        <ele>405.33</ele>
        <time>2014-07-13T15:13:07Z</time>
      </trkpt>
      <trkpt lat="43.236" lon="0.89315">
        <ele>401.97</ele>
        <time>2014-07-13T15:13:27Z</time>
      </trkpt>
      <trkpt lat="43.23576" lon="0.89388">
        <ele>400.05</ele>
        <time>2014-07-13T15:13:46Z</time>
      </trkpt>
      <trkpt lat="43.23576" lon="0.89388">
        <ele>397.64</ele>
        <time>2014-07-13T15:19:22Z</time>
      </trkpt>
      <trkpt lat="43.23573" lon="0.89413">
        <ele>396.68</ele>
        <time>2014-07-13T15:19:39Z</time>
      </trkpt>
      <trkpt lat="43.23575" lon="0.89429">
        <ele>394.28</ele>
        <time>2014-07-13T15:19:54Z</time>
      </trkpt>
      <trkpt lat="43.23585" lon="0.8944">
        <ele>392.84</ele>
        <time>2014-07-13T15:20:10Z</time>
      </trkpt>
      <trkpt lat="43.23594" lon="0.89446">
        <ele>391.39</ele>
        <time>2014-07-13T15:20:26Z</time>
      </trkpt>
      <trkpt lat="43.23598" lon="0.89448">
        <ele>389.95</ele>
        <time>2014-07-13T15:20:38Z</time>
      </trkpt>
      <trkpt lat="43.23602" lon="0.89452">
        <ele>389.95</ele>
        <time>2014-07-13T15:20:43Z</time>
      </trkpt>
      <trkpt lat="43.2361" lon="0.89459">
        <ele>388.99</ele>
        <time>2014-07-13T15:20:59Z</time>
      </trkpt>
      <trkpt lat="43.23611" lon="0.8946">
        <ele>388.51</ele>
        <time>2014-07-13T15:21:05Z</time>
      </trkpt>
      <trkpt lat="43.23624" lon="0.89472">
        <ele>387.55</ele>
        <time>2014-07-13T15:21:23Z</time>
      </trkpt>
      <trkpt lat="43.2364" lon="0.89488">
        <ele>387.07</ele>
        <time>2014-07-13T15:21:43Z</time>
      </trkpt>
      <trkpt lat="43.23654" lon="0.89499">
        <ele>386.59</ele>
        <time>2014-07-13T15:22:00Z</time>
      </trkpt>
      <trkpt lat="43.23664" lon="0.89509">
        <ele>386.11</ele>
        <time>2014-07-13T15:22:13Z</time>
      </trkpt>
      <trkpt lat="43.23667" lon="0.8951">
        <ele>386.59</ele>
        <time>2014-07-13T15:22:20Z</time>
      </trkpt>
      <trkpt lat="43.23684" lon="0.89516">
        <ele>387.07</ele>
        <time>2014-07-13T15:22:36Z</time>
      </trkpt>
      <trkpt lat="43.23694" lon="0.89522">
        <ele>387.07</ele>
        <time>2014-07-13T15:22:52Z</time>
      </trkpt>
      <trkpt lat="43.2371" lon="0.89535">
        <ele>388.03</ele>
        <time>2014-07-13T15:23:09Z</time>
      </trkpt>
      <trkpt lat="43.23718" lon="0.89542">
        <ele>389.95</ele>
        <time>2014-07-13T15:23:22Z</time>
      </trkpt>
      <trkpt lat="43.23733" lon="0.89553">
        <ele>389.95</ele>
        <time>2014-07-13T15:23:37Z</time>
      </trkpt>
      <trkpt lat="43.23748" lon="0.89565">
        <ele>391.87</ele>
        <time>2014-07-13T15:23:54Z</time>
      </trkpt>
      <trkpt lat="43.23762" lon="0.89577">
        <ele>392.84</ele>
        <time>2014-07-13T15:24:10Z</time>
      </trkpt>
      <trkpt lat="43.23775" lon="0.89585">
        <ele>392.36</ele>
        <time>2014-07-13T15:24:26Z</time>
      </trkpt>
      <trkpt lat="43.23783" lon="0.8959">
        <ele>393.32</ele>
        <time>2014-07-13T15:24:40Z</time>
      </trkpt>
      <trkpt lat="43.23783" lon="0.8959">
        <ele>390.43</ele>
        <time>2014-07-13T15:30:56Z</time>
      </trkpt>
      <trkpt lat="43.23804" lon="0.89557">
        <ele>388.99</ele>
        <time>2014-07-13T15:31:12Z</time>
      </trkpt>
      <trkpt lat="43.23814" lon="0.89542">
        <ele>387.07</ele>
        <time>2014-07-13T15:31:29Z</time>
      </trkpt>
      <trkpt lat="43.2382" lon="0.89533">
        <ele>386.11</ele>
        <time>2014-07-13T15:31:44Z</time>
      </trkpt>
      <trkpt lat="43.23828" lon="0.8952">
        <ele>383.7</ele>
        <time>2014-07-13T15:32:02Z</time>
      </trkpt>
      <trkpt lat="43.23838" lon="0.8952">
        <ele>382.26</ele>
        <time>2014-07-13T15:32:23Z</time>
      </trkpt>
      <trkpt lat="43.23845" lon="0.89526">
        <ele>380.82</ele>
        <time>2014-07-13T15:32:40Z</time>
      </trkpt>
      <trkpt lat="43.23851" lon="0.89532">
        <ele>379.86</ele>
        <time>2014-07-13T15:32:57Z</time>
      </trkpt>
      <trkpt lat="43.23855" lon="0.89536">
        <ele>378.9</ele>
        <time>2014-07-13T15:33:15Z</time>
      </trkpt>
      <trkpt lat="43.23862" lon="0.89546">
        <ele>376.01</ele>
        <time>2014-07-13T15:33:30Z</time>
      </trkpt>
      <trkpt lat="43.23871" lon="0.89545">
        <ele>375.53</ele>
        <time>2014-07-13T15:33:46Z</time>
      </trkpt>
      <trkpt lat="43.23875" lon="0.89533">
        <ele>373.13</ele>
        <time>2014-07-13T15:34:07Z</time>
      </trkpt>
      <trkpt lat="43.23882" lon="0.89522">
        <ele>370.24</ele>
        <time>2014-07-13T15:34:27Z</time>
      </trkpt>
      <trkpt lat="43.23882" lon="0.89506">
        <ele>369.28</ele>
        <time>2014-07-13T15:34:47Z</time>
      </trkpt>
      <trkpt lat="43.23888" lon="0.89499">
        <ele>367.36</ele>
        <time>2014-07-13T15:35:05Z</time>
      </trkpt>
      <trkpt lat="43.23896" lon="0.89482">
        <ele>364</ele>
        <time>2014-07-13T15:35:27Z</time>
      </trkpt>
      <trkpt lat="43.239" lon="0.89472">
        <ele>363.52</ele>
        <time>2014-07-13T15:35:45Z</time>
      </trkpt>
      <trkpt lat="43.23899" lon="0.89456">
        <ele>362.07</ele>
        <time>2014-07-13T15:36:04Z</time>
      </trkpt>
      <trkpt lat="43.239" lon="0.89451">
        <ele>361.59</ele>
        <time>2014-07-13T15:36:37Z</time>
      </trkpt>
      <trkpt lat="43.23902" lon="0.89451">
        <ele>361.59</ele>
        <time>2014-07-13T15:37:03Z</time>
      </trkpt>
      <trkpt lat="43.23907" lon="0.89447">
        <ele>360.15</ele>
        <time>2014-07-13T15:37:18Z</time>
      </trkpt>
      <trkpt lat="43.23901" lon="0.89426">
        <ele>357.75</ele>
        <time>2014-07-13T15:37:35Z</time>
      </trkpt>
      <trkpt lat="43.23901" lon="0.89407">
        <ele>355.83</ele>
        <time>2014-07-13T15:37:51Z</time>
      </trkpt>
      <trkpt lat="43.239" lon="0.89392">
        <ele>355.34</ele>
        <time>2014-07-13T15:38:08Z</time>
      </trkpt>
      <trkpt lat="43.23898" lon="0.89373">
        <ele>353.42</ele>
        <time>2014-07-13T15:38:24Z</time>
      </trkpt>
      <trkpt lat="43.23896" lon="0.89349">
        <ele>351.98</ele>
        <time>2014-07-13T15:38:41Z</time>
      </trkpt>
      <trkpt lat="43.23897" lon="0.8933">
        <ele>349.1</ele>
        <time>2014-07-13T15:38:58Z</time>
      </trkpt>
      <trkpt lat="43.23905" lon="0.8931">
        <ele>346.21</ele>
        <time>2014-07-13T15:39:15Z</time>
      </trkpt>
      <trkpt lat="43.23913" lon="0.89302">
        <ele>345.25</ele>
        <time>2014-07-13T15:39:30Z</time>
      </trkpt>
      <trkpt lat="43.2392" lon="0.89302">
        <ele>346.21</ele>
        <time>2014-07-13T15:39:56Z</time>
      </trkpt>
      <trkpt lat="43.23919" lon="0.893">
        <ele>345.25</ele>
        <time>2014-07-13T15:40:25Z</time>
      </trkpt>
      <trkpt lat="43.23926" lon="0.89299">
        <ele>345.25</ele>
        <time>2014-07-13T15:41:01Z</time>
      </trkpt>
      <trkpt lat="43.2392" lon="0.89302">
        <ele>345.25</ele>
        <time>2014-07-13T15:41:34Z</time>
      </trkpt>
      <trkpt lat="43.23926" lon="0.89296">
        <ele>342.37</ele>
        <time>2014-07-13T15:41:50Z</time>
      </trkpt>
      <trkpt lat="43.23933" lon="0.89287">
        <ele>339</ele>
        <time>2014-07-13T15:42:04Z</time>
      </trkpt>
      <trkpt lat="43.23935" lon="0.89285">
        <ele>337.56</ele>
        <time>2014-07-13T15:42:08Z</time>
      </trkpt>
      <trkpt lat="43.23943" lon="0.89275">
        <ele>334.68</ele>
        <time>2014-07-13T15:42:22Z</time>
      </trkpt>
      <trkpt lat="43.23956" lon="0.89259">
        <ele>333.71</ele>
        <time>2014-07-13T15:42:36Z</time>
      </trkpt>
      <trkpt lat="43.23957" lon="0.8925">
        <ele>333.71</ele>
        <time>2014-07-13T15:42:44Z</time>
      </trkpt>
      <trkpt lat="43.23959" lon="0.89243">
        <ele>333.71</ele>
        <time>2014-07-13T15:42:48Z</time>
      </trkpt>
      <trkpt lat="43.23964" lon="0.89228">
        <ele>333.71</ele>
        <time>2014-07-13T15:42:59Z</time>
      </trkpt>
      <trkpt lat="43.23964" lon="0.89199">
        <ele>336.6</ele>
        <time>2014-07-13T15:43:14Z</time>
      </trkpt>
      <trkpt lat="43.23974" lon="0.89188">
        <ele>335.64</ele>
        <time>2014-07-13T15:43:29Z</time>
      </trkpt>
      <trkpt lat="43.23975" lon="0.89189">
        <ele>335.16</ele>
        <time>2014-07-13T15:43:30Z</time>
      </trkpt>
      <trkpt lat="43.23975" lon="0.89201">
        <ele>332.75</ele>
        <time>2014-07-13T15:43:39Z</time>
      </trkpt>
      <trkpt lat="43.23975" lon="0.89205">
        <ele>332.27</ele>
        <time>2014-07-13T15:43:42Z</time>
      </trkpt>
      <trkpt lat="43.2398" lon="0.89227">
        <ele>328.91</ele>
        <time>2014-07-13T15:43:58Z</time>
      </trkpt>
      <trkpt lat="43.23985" lon="0.8925">
        <ele>325.54</ele>
        <time>2014-07-13T15:44:13Z</time>
      </trkpt>
      <trkpt lat="43.23985" lon="0.8925">
        <ele>325.54</ele>
        <time>2014-07-13T15:44:13Z</time>
      </trkpt>
      <trkpt lat="43.23975" lon="0.89911">
        <ele>325.06</ele>
        <time>2014-07-13T15:44:20Z</time>
      </trkpt>
    </trkseg>
  </trk>
</gpx>